createdAt,value
2022-12-01T00:01:55.106Z,1.69
2022-12-01T00:04:56.874Z,1.73
2022-12-01T00:08:00.000Z,1.73
2022-12-01T00:11:05.370Z,1.77
2022-12-01T00:14:07.026Z,1.69
2022-12-01T00:17:08.907Z,1.73
2022-12-01T00:20:11.211Z,1.77
2022-12-01T00:23:14.243Z,1.82
2022-12-01T00:26:16.159Z,1.81
2022-12-01T00:29:17.796Z,1.70
2022-12-01T00:32:19.422Z,1.75
2022-12-01T00:35:21.281Z,1.80
2022-12-01T00:38:24.754Z,1.83
2022-12-01T00:41:26.505Z,1.89
2022-12-01T00:44:28.407Z,1.84
2022-12-01T00:47:30.282Z,1.79
2022-12-01T00:50:32.008Z,1.81
2022-12-01T00:53:35.192Z,1.82
2022-12-01T00:56:37.274Z,1.90
2022-12-01T00:59:38.964Z,1.87
2022-12-01T01:02:40.740Z,1.89
2022-12-01T01:05:42.974Z,1.92
2022-12-01T01:08:46.054Z,1.93
2022-12-01T01:11:47.772Z,1.95
2022-12-01T01:14:49.521Z,1.94
2022-12-01T01:17:51.182Z,1.94
2022-12-01T01:20:55.208Z,1.82
2022-12-01T01:23:58.256Z,1.92
2022-12-01T01:26:59.940Z,1.89
2022-12-01T01:30:01.607Z,1.90
2022-12-01T01:33:03.489Z,1.88
2022-12-01T01:36:05.467Z,1.88
2022-12-01T01:39:08.565Z,1.90
2022-12-01T01:42:12.791Z,1.94
2022-12-01T01:45:19.497Z,1.88
2022-12-01T01:48:21.270Z,1.93
2022-12-01T01:51:26.460Z,1.92
2022-12-01T01:54:31.377Z,1.93
2022-12-01T01:57:34.084Z,1.96
2022-12-01T02:00:36.532Z,1.91
2022-12-01T02:03:39.007Z,1.85
2022-12-01T02:06:42.586Z,1.83
2022-12-01T02:09:45.805Z,1.76
2022-12-01T02:12:56.042Z,1.85
2022-12-01T02:16:02.605Z,1.85
2022-12-01T02:19:21.015Z,1.89
2022-12-01T02:22:30.093Z,1.90
2022-12-01T02:25:38.697Z,1.84
2022-12-01T02:28:54.770Z,1.82
2022-12-01T02:32:00.593Z,1.84
2022-12-01T02:35:08.630Z,1.90
2022-12-01T02:38:14.605Z,1.84
2022-12-01T02:41:18.792Z,1.81
2022-12-01T02:44:24.665Z,1.82
2022-12-01T02:47:27.813Z,1.71
2022-12-01T02:50:31.284Z,1.77
2022-12-01T02:53:34.006Z,1.80
2022-12-01T02:56:35.679Z,1.74
2022-12-01T02:59:37.376Z,1.76
2022-12-01T03:02:45.426Z,1.73
2022-12-01T03:05:51.955Z,1.67
2022-12-01T03:08:58.965Z,1.74
2022-12-01T03:12:06.953Z,1.61
2022-12-01T03:15:12.500Z,1.53
2022-12-01T03:18:20.337Z,1.49
2022-12-01T03:21:25.125Z,1.52
2022-12-01T03:24:27.357Z,1.55
2022-12-01T03:27:32.319Z,1.44
2022-12-01T03:30:35.404Z,1.50
2022-12-01T03:33:41.067Z,1.56
2022-12-01T03:36:45.685Z,1.61
2022-12-01T03:39:48.774Z,1.66
2022-12-01T03:42:54.799Z,1.66
2022-12-01T03:45:59.881Z,1.68
2022-12-01T03:49:02.997Z,1.72
2022-12-01T03:52:10.075Z,1.69
2022-12-01T03:55:13.941Z,1.76
2022-12-01T03:58:18.574Z,1.75
2022-12-01T04:01:20.353Z,1.75
2022-12-01T04:04:23.453Z,1.69
2022-12-01T04:07:25.280Z,1.73
2022-12-01T04:10:27.019Z,1.68
2022-12-01T04:13:28.682Z,1.76
2022-12-01T04:16:30.329Z,1.73
2022-12-01T04:19:33.400Z,1.68
2022-12-01T04:22:35.019Z,1.60
2022-12-01T04:25:36.628Z,1.64
2022-12-01T04:28:38.262Z,1.62
2022-12-01T04:31:40.112Z,1.57
2022-12-01T04:34:43.456Z,1.52
2022-12-01T04:37:45.125Z,1.47
2022-12-01T04:40:46.771Z,1.46
2022-12-01T04:43:48.472Z,1.55
2022-12-01T04:46:51.296Z,1.50
2022-12-01T04:49:54.524Z,1.54
2022-12-01T04:52:56.190Z,1.35
2022-12-01T04:55:59.208Z,1.42
2022-12-01T04:59:00.896Z,1.46
2022-12-01T05:02:02.610Z,1.50
2022-12-01T05:05:06.291Z,1.44
2022-12-01T05:08:07.981Z,1.48
2022-12-01T05:11:10.558Z,1.52
2022-12-01T05:14:12.175Z,1.56
2022-12-01T05:17:13.940Z,1.56
2022-12-01T05:20:18.864Z,1.60
2022-12-01T05:23:20.630Z,1.60
2022-12-01T05:26:22.320Z,1.48
2022-12-01T05:29:24.070Z,1.52
2022-12-01T05:32:25.696Z,1.54
2022-12-01T05:35:28.813Z,1.53
2022-12-01T05:38:30.497Z,1.53
2022-12-01T05:41:32.170Z,1.54
2022-12-01T05:44:33.855Z,1.58
2022-12-01T05:47:35.641Z,1.50
2022-12-01T05:50:39.888Z,1.50
2022-12-01T05:53:41.619Z,1.55
2022-12-01T05:56:43.285Z,1.50
2022-12-01T05:59:44.971Z,1.46
2022-12-01T06:02:46.626Z,1.43
2022-12-01T06:05:49.716Z,1.38
2022-12-01T06:08:51.428Z,1.41
2022-12-01T06:11:53.027Z,1.51
2022-12-01T06:14:54.750Z,1.42
2022-12-01T06:17:58.756Z,1.45
2022-12-01T06:21:02.325Z,1.39
2022-12-01T06:24:04.080Z,1.39
2022-12-01T06:27:05.743Z,1.35
2022-12-01T06:30:08.078Z,1.35
2022-12-01T06:33:09.848Z,1.36
2022-12-01T06:36:12.878Z,1.33
2022-12-01T06:39:15.430Z,1.45
2022-12-01T06:42:17.071Z,1.47
2022-12-01T06:45:18.726Z,1.40
2022-12-01T06:48:20.462Z,1.48
2022-12-01T06:51:23.535Z,1.45
2022-12-01T06:54:25.184Z,1.53
2022-12-01T06:57:26.828Z,1.62
2022-12-01T07:00:28.786Z,1.56
2022-12-01T07:03:30.481Z,1.54
2022-12-01T07:06:33.668Z,1.54
2022-12-01T07:09:35.544Z,1.61
2022-12-01T07:12:37.357Z,1.59
2022-12-01T07:15:39.118Z,1.67
2022-12-01T07:18:40.989Z,1.63
2022-12-01T07:21:43.985Z,1.64
2022-12-01T07:24:45.622Z,1.66
2022-12-01T07:27:47.268Z,1.62
2022-12-01T07:30:48.970Z,1.71
2022-12-01T07:33:51.500Z,1.71
2022-12-01T07:36:54.538Z,1.66
2022-12-01T07:39:56.205Z,1.63
2022-12-01T07:42:57.832Z,1.64
2022-12-01T07:46:03.726Z,1.65
2022-12-01T07:49:06.166Z,1.70
2022-12-01T07:52:09.257Z,1.68
2022-12-01T07:55:10.947Z,1.77
2022-12-01T07:58:12.581Z,1.69
2022-12-01T08:01:15.420Z,1.69
2022-12-01T08:04:17.117Z,1.73
2022-12-01T08:07:20.506Z,1.62
2022-12-01T08:10:22.183Z,1.67
2022-12-01T08:13:23.802Z,1.59
2022-12-01T08:16:25.917Z,1.65
2022-12-01T08:19:27.639Z,1.65
2022-12-01T08:22:31.278Z,1.71
2022-12-01T08:25:32.898Z,1.70
2022-12-01T08:28:35.502Z,1.77
2022-12-01T08:31:37.352Z,1.75
2022-12-01T08:34:39.367Z,1.82
2022-12-01T08:37:42.451Z,1.91
2022-12-01T08:40:44.144Z,1.94
2022-12-01T08:44:01.708Z,1.88
2022-12-01T08:47:03.744Z,1.94
2022-12-01T08:50:06.056Z,1.81
2022-12-01T08:53:09.142Z,1.87
2022-12-01T08:56:12.017Z,1.89
2022-12-01T08:59:14.088Z,1.82
2022-12-01T09:02:16.100Z,1.90
2022-12-01T09:05:17.940Z,1.78
2022-12-01T09:08:20.937Z,1.73
2022-12-01T09:11:22.646Z,1.79
2022-12-01T09:14:24.320Z,1.94
2022-12-01T09:17:25.986Z,1.90
2022-12-01T09:20:27.764Z,1.87
2022-12-01T09:23:30.918Z,1.83
2022-12-01T09:26:32.916Z,1.69
2022-12-01T09:29:34.736Z,1.83
2022-12-01T09:32:36.361Z,1.67
2022-12-01T09:35:38.009Z,1.61
2022-12-01T09:38:41.067Z,1.46
2022-12-01T09:41:45.162Z,1.46
2022-12-01T09:44:48.444Z,1.50
2022-12-01T09:47:50.202Z,1.60
2022-12-01T09:50:51.982Z,1.53
2022-12-01T09:53:56.033Z,1.53
2022-12-01T09:56:57.697Z,1.55
2022-12-01T10:00:01.031Z,1.65
2022-12-01T10:03:06.197Z,1.82
2022-12-01T10:06:28.399Z,1.79
2022-12-01T10:09:36.575Z,1.79
2022-12-01T10:12:38.260Z,1.90
2022-12-01T10:15:43.143Z,1.90
2022-12-01T10:18:53.029Z,1.95
2022-12-01T10:22:03.935Z,1.96
2022-12-01T10:25:17.808Z,2.09
2022-12-01T10:28:37.103Z,2.06
2022-12-01T10:31:44.700Z,1.96
2022-12-01T10:34:46.951Z,1.95
2022-12-01T10:37:51.831Z,1.94
2022-12-01T10:40:56.745Z,2.08
2022-12-01T10:43:59.778Z,1.90
2022-12-01T10:47:02.404Z,2.01
2022-12-01T10:50:04.374Z,2.10
2022-12-01T10:53:06.046Z,2.07
2022-12-01T10:56:12.753Z,2.00
2022-12-01T10:59:22.370Z,1.88
2022-12-01T11:02:25.804Z,1.97
2022-12-01T11:05:28.943Z,1.86
2022-12-01T11:08:33.965Z,1.93
2022-12-01T11:11:37.975Z,1.95
2022-12-01T11:14:43.115Z,2.02
2022-12-01T11:17:45.040Z,2.05
2022-12-01T11:20:46.722Z,2.18
2022-12-01T11:23:49.321Z,2.12
2022-12-01T11:26:52.527Z,2.12
2022-12-01T11:29:56.060Z,2.27
2022-12-01T11:32:59.011Z,2.10
2022-12-01T11:36:00.713Z,2.10
2022-12-01T11:39:02.757Z,2.20
2022-12-01T11:42:14.051Z,2.26
2022-12-01T11:45:23.632Z,2.26
2022-12-01T11:48:26.455Z,2.03
2022-12-01T11:51:29.834Z,2.05
2022-12-01T11:54:31.925Z,2.07
2022-12-01T11:57:35.434Z,2.15
2022-12-01T12:00:43.263Z,2.25
2022-12-01T12:03:49.440Z,2.25
2022-12-01T12:06:57.059Z,2.36
2022-12-01T12:10:03.757Z,2.40
2022-12-01T12:13:32.275Z,2.41
2022-12-01T12:16:43.659Z,2.33
2022-12-01T12:20:07.819Z,2.34
2022-12-01T12:23:29.188Z,2.34
2022-12-01T12:26:33.674Z,2.32
2022-12-01T12:29:47.796Z,2.41
2022-12-01T12:33:07.417Z,2.56
2022-12-01T12:36:15.178Z,2.46
2022-12-01T12:39:26.158Z,2.50
2022-12-01T12:42:34.326Z,2.48
2022-12-01T12:45:46.374Z,2.44
2022-12-01T12:49:19.104Z,2.55
2022-12-01T12:52:24.642Z,2.58
2022-12-01T12:55:28.259Z,2.59
2022-12-01T12:58:33.828Z,2.60
2022-12-01T13:01:38.543Z,2.60
2022-12-01T13:04:44.508Z,2.64
2022-12-01T13:07:50.264Z,2.72
2022-12-01T13:10:54.325Z,2.73
2022-12-01T13:13:58.452Z,2.71
2022-12-01T13:17:05.162Z,2.72
2022-12-01T13:20:13.545Z,2.71
2022-12-01T13:23:17.992Z,2.68
2022-12-01T13:26:21.252Z,2.60
2022-12-01T13:29:24.697Z,2.53
2022-12-01T13:32:31.997Z,2.64
2022-12-01T13:35:36.637Z,2.79
2022-12-01T13:38:38.749Z,2.75
2022-12-01T13:41:42.989Z,2.76
2022-12-01T13:44:46.214Z,2.77
2022-12-01T13:47:50.046Z,2.86
2022-12-01T13:50:57.394Z,2.99
2022-12-01T13:54:02.878Z,3.00
2022-12-01T13:57:06.082Z,3.08
2022-12-01T14:00:22.628Z,3.17
2022-12-01T14:03:32.476Z,3.15
2022-12-01T14:06:39.003Z,3.27
2022-12-01T14:09:41.714Z,3.35
2022-12-01T14:12:44.788Z,3.40
2022-12-01T14:15:52.953Z,3.43
2022-12-01T14:18:55.746Z,3.29
2022-12-01T14:22:00.324Z,3.43
2022-12-01T14:25:02.913Z,3.44
2022-12-01T14:28:12.200Z,3.49
2022-12-01T14:31:14.609Z,3.48
2022-12-01T14:34:19.223Z,3.49
2022-12-01T14:37:26.243Z,3.23
2022-12-01T14:40:29.775Z,3.28
2022-12-01T14:43:31.581Z,3.33
2022-12-01T14:46:38.764Z,3.34
2022-12-01T14:49:43.083Z,3.29
2022-12-01T14:52:47.077Z,3.33
2022-12-01T14:55:52.185Z,3.28
2022-12-01T14:58:55.252Z,3.24
2022-12-01T15:02:02.797Z,3.26
2022-12-01T15:05:09.693Z,3.20
2022-12-01T15:08:40.861Z,3.33
2022-12-01T15:11:49.970Z,3.28
2022-12-01T15:14:51.968Z,3.18
2022-12-01T15:17:54.526Z,3.20
2022-12-01T15:20:58.889Z,3.26
2022-12-01T15:24:04.408Z,3.15
2022-12-01T15:27:21.385Z,3.08
2022-12-01T15:30:23.186Z,3.04
2022-12-01T15:33:28.980Z,3.02
2022-12-01T15:36:32.604Z,3.00
2022-12-01T15:39:37.053Z,2.99
2022-12-01T15:42:38.998Z,3.07
2022-12-01T15:45:51.327Z,3.08
2022-12-01T15:49:05.666Z,3.01
2022-12-01T15:52:09.157Z,2.82
2022-12-01T15:55:25.757Z,2.76
2022-12-01T15:58:28.714Z,2.81
2022-12-01T16:01:31.430Z,2.72
2022-12-01T16:04:33.591Z,2.71
2022-12-01T16:08:04.878Z,2.76
2022-12-01T16:11:12.719Z,2.73
2022-12-01T16:14:21.648Z,2.67
2022-12-01T16:17:24.639Z,2.58
2022-12-01T16:20:31.222Z,2.54
2022-12-01T16:23:33.102Z,2.43
2022-12-01T16:26:36.301Z,2.45
2022-12-01T16:29:45.562Z,2.38
2022-12-01T16:32:47.898Z,2.43
2022-12-01T16:35:49.960Z,2.42
2022-12-01T16:38:52.117Z,2.45
2022-12-01T16:41:58.825Z,2.46
2022-12-01T16:45:01.087Z,2.31
2022-12-01T16:48:09.101Z,2.40
2022-12-01T16:51:14.630Z,2.41
2022-12-01T16:54:16.447Z,2.35
2022-12-01T16:57:20.171Z,2.32
2022-12-01T17:00:22.401Z,2.34
2022-12-01T17:03:24.939Z,2.35
2022-12-01T17:06:26.628Z,2.23
2022-12-01T17:09:28.340Z,2.23
2022-12-01T17:12:32.446Z,2.29
2022-12-01T17:15:34.587Z,2.27
2022-12-01T17:18:37.716Z,2.26
2022-12-01T17:21:39.866Z,2.40
2022-12-01T17:24:42.136Z,2.22
2022-12-01T17:27:45.777Z,2.28
2022-12-01T17:30:49.225Z,2.24
2022-12-01T17:33:51.716Z,2.17
2022-12-01T17:36:53.936Z,2.18
2022-12-01T17:39:56.207Z,2.12
2022-12-01T17:42:59.424Z,1.95
2022-12-01T17:46:03.206Z,2.02
2022-12-01T17:49:05.666Z,1.99
2022-12-01T17:52:07.581Z,1.78
2022-12-01T17:55:09.810Z,1.82
2022-12-01T17:58:13.318Z,1.73
2022-12-01T18:01:16.272Z,1.72
2022-12-01T18:04:18.206Z,1.78
2022-12-01T18:07:20.478Z,1.86
2022-12-01T18:10:23.094Z,1.75
2022-12-01T18:13:26.414Z,1.67
2022-12-01T18:16:30.551Z,1.80
2022-12-01T18:19:33.271Z,1.85
2022-12-01T18:22:35.640Z,1.83
2022-12-01T18:25:38.334Z,1.78
2022-12-01T18:28:42.273Z,1.82
2022-12-01T18:31:44.781Z,1.80
2022-12-01T18:34:47.048Z,1.76
2022-12-01T18:37:49.257Z,1.81
2022-12-01T18:40:51.420Z,1.74
2022-12-01T18:43:55.088Z,1.77
2022-12-01T18:46:57.213Z,1.78
2022-12-01T18:49:59.636Z,1.80
2022-12-01T18:53:02.043Z,1.83
2022-12-01T18:56:07.925Z,1.89
2022-12-01T18:59:12.444Z,1.85
2022-12-01T19:02:14.842Z,1.82
2022-12-01T19:05:17.735Z,1.74
2022-12-01T19:08:20.251Z,1.69
2022-12-01T19:11:22.832Z,1.72
2022-12-01T19:14:27.467Z,1.60
2022-12-01T19:17:30.853Z,1.60
2022-12-01T19:20:33.288Z,1.56
2022-12-01T19:23:35.757Z,1.64
2022-12-01T19:26:38.543Z,1.67
2022-12-01T19:29:42.149Z,1.67
2022-12-01T19:32:44.376Z,1.70
2022-12-01T19:35:46.911Z,1.60
2022-12-01T19:38:49.675Z,1.63
2022-12-01T19:41:51.725Z,1.57
2022-12-01T19:44:57.387Z,1.67
2022-12-01T19:47:59.689Z,1.30
2022-12-01T19:51:03.553Z,1.44
2022-12-01T19:54:06.857Z,1.40
2022-12-01T19:57:09.866Z,1.37
2022-12-01T20:00:14.074Z,1.41
2022-12-01T20:03:16.632Z,1.45
2022-12-01T20:06:19.916Z,1.50
2022-12-01T20:09:22.062Z,1.55
2022-12-01T20:12:24.628Z,1.60
2022-12-01T20:15:28.931Z,1.64
2022-12-01T20:18:31.445Z,1.69
2022-12-01T20:21:34.627Z,1.53
2022-12-01T20:24:38.283Z,1.58
2022-12-01T20:27:40.861Z,1.51
2022-12-01T20:30:44.502Z,1.60
2022-12-01T20:33:53.410Z,1.60
2022-12-01T20:36:56.332Z,1.61
2022-12-01T20:39:59.022Z,1.61
2022-12-01T20:43:01.307Z,1.73
2022-12-01T20:46:08.124Z,1.69
2022-12-01T20:49:10.525Z,1.63
2022-12-01T20:52:13.065Z,1.66
2022-12-01T20:55:15.188Z,1.65
2022-12-01T20:58:17.521Z,1.71
2022-12-01T21:01:21.214Z,1.57
2022-12-01T21:04:23.211Z,1.29
2022-12-01T21:07:26.372Z,1.23
2022-12-01T21:10:28.139Z,1.11
2022-12-01T21:13:30.764Z,1.07
2022-12-01T21:16:34.082Z,1.14
2022-12-01T21:19:42.320Z,0.92
2022-12-01T21:22:44.974Z,0.96
2022-12-01T21:25:48.492Z,0.90
2022-12-01T21:28:50.238Z,0.96
2022-12-01T21:31:55.103Z,1.08
2022-12-01T21:35:00.789Z,1.03
2022-12-01T21:38:07.060Z,0.76
2022-12-01T21:41:13.762Z,0.67
2022-12-01T21:44:16.336Z,0.64
2022-12-01T21:47:20.304Z,0.86
2022-12-01T21:50:22.997Z,0.88
2022-12-01T21:53:26.990Z,0.98
2022-12-01T21:56:29.176Z,1.01
2022-12-01T21:59:30.825Z,1.06
2022-12-01T22:02:39.129Z,1.20
2022-12-01T22:05:41.626Z,1.12
2022-12-01T22:08:45.038Z,1.15
2022-12-01T22:11:49.367Z,1.08
2022-12-01T22:14:51.283Z,1.11
2022-12-01T22:17:54.528Z,1.27
2022-12-01T22:20:56.378Z,1.21
2022-12-01T22:24:00.975Z,1.15
2022-12-01T22:27:09.039Z,1.22
2022-12-01T22:30:13.911Z,1.28
2022-12-01T22:33:19.553Z,1.35
2022-12-01T22:36:22.444Z,1.28
2022-12-01T22:39:26.871Z,1.33
2022-12-01T22:42:30.251Z,1.28
2022-12-01T22:45:31.894Z,1.31
2022-12-01T22:48:36.074Z,1.28
2022-12-01T22:51:41.064Z,1.42
2022-12-01T22:54:43.363Z,1.30
2022-12-01T22:57:45.616Z,1.40
2022-12-01T23:00:47.425Z,1.24
2022-12-01T23:03:50.603Z,1.25
2022-12-01T23:07:00.112Z,1.29
2022-12-01T23:10:12.600Z,1.31
2022-12-01T23:13:15.276Z,1.29
2022-12-01T23:16:17.218Z,1.24
2022-12-01T23:19:20.426Z,1.28
2022-12-01T23:22:21.978Z,1.27
2022-12-01T23:25:24.036Z,1.27
2022-12-01T23:28:25.638Z,1.35
2022-12-01T23:31:28.331Z,1.34
2022-12-01T23:34:31.322Z,1.37
2022-12-01T23:37:33.912Z,1.38
2022-12-01T23:40:36.199Z,1.40
2022-12-01T23:43:38.791Z,1.43
2022-12-01T23:46:41.127Z,1.35
2022-12-01T23:49:44.188Z,1.42
2022-12-01T23:52:46.099Z,1.32
2022-12-01T23:55:47.733Z,1.36
2022-12-01T23:58:49.447Z,1.27
